createdAt,value
2023-03-21T00:00:34.974Z,11.3
2023-03-21T00:05:35.207Z,11.2
2023-03-21T00:10:44.056Z,11.2
2023-03-21T00:15:51.260Z,11.2
2023-03-21T00:20:34.956Z,11.2
2023-03-21T00:25:35.027Z,11.1
2023-03-21T00:30:34.958Z,11.1
2023-03-21T00:36:05.159Z,11.1
2023-03-21T00:40:47.072Z,11.1
2023-03-21T00:45:35.382Z,11.1
2023-03-21T00:50:34.961Z,11.1
2023-03-21T00:55:35.288Z,11.0
2023-03-21T01:00:34.992Z,11.0
2023-03-21T01:05:35.155Z,11.0
2023-03-21T01:10:34.970Z,10.9
2023-03-21T01:15:35.193Z,10.8
2023-03-21T01:20:34.969Z,10.8
2023-03-21T01:25:34.970Z,10.8
2023-03-21T01:30:41.845Z,10.8
2023-03-21T01:35:47.925Z,10.8
2023-03-21T01:40:34.979Z,10.8
2023-03-21T01:45:35.161Z,10.8
2023-03-21T01:50:35.088Z,10.8
2023-03-21T01:55:35.070Z,10.8
2023-03-21T02:00:34.989Z,10.9
2023-03-21T02:05:35.397Z,10.9
2023-03-21T02:10:34.997Z,10.9
2023-03-21T02:15:35.206Z,11.0
2023-03-21T02:20:35.004Z,11.0
2023-03-21T02:25:35.006Z,11.0
2023-03-21T02:30:50.714Z,11.0
2023-03-21T02:35:39.144Z,11.0
2023-03-21T02:40:35.178Z,11.0
2023-03-21T02:45:35.014Z,11.0
2023-03-21T02:50:35.152Z,11.0
2023-03-21T02:55:35.026Z,11.0
2023-03-21T03:00:35.321Z,11.0
2023-03-21T03:05:35.043Z,11.0
2023-03-21T03:10:35.315Z,10.9
2023-03-21T03:15:35.101Z,10.9
2023-03-21T03:20:35.056Z,10.9
2023-03-21T03:25:43.274Z,10.9
2023-03-21T03:30:48.890Z,10.9
2023-03-21T03:35:35.096Z,10.9
2023-03-21T03:40:35.920Z,10.9
2023-03-21T03:45:35.154Z,10.8
2023-03-21T03:50:35.193Z,10.8
2023-03-21T03:55:35.055Z,10.8
2023-03-21T04:00:35.141Z,10.8
2023-03-21T04:05:35.067Z,10.8
2023-03-21T04:10:35.419Z,10.8
2023-03-21T04:15:35.070Z,10.7
2023-03-21T04:20:37.562Z,10.7
2023-03-21T04:25:36.924Z,10.6
2023-03-21T04:30:35.314Z,10.6
2023-03-21T04:35:37.114Z,10.6
2023-03-21T04:40:35.517Z,10.6
2023-03-21T04:45:35.113Z,10.6
2023-03-21T04:50:35.312Z,10.6
2023-03-21T04:55:35.164Z,10.6
2023-03-21T05:00:35.087Z,10.5
2023-03-21T05:05:35.149Z,10.5
2023-03-21T05:10:35.126Z,10.5
2023-03-21T05:15:35.346Z,10.5
2023-03-21T05:20:35.106Z,10.5
2023-03-21T05:25:35.240Z,10.5
2023-03-21T05:30:35.164Z,10.5
2023-03-21T05:35:35.271Z,10.5
2023-03-21T05:40:35.132Z,10.6
2023-03-21T05:45:35.118Z,10.6
2023-03-21T05:50:35.124Z,10.6
2023-03-21T05:55:35.120Z,10.6
2023-03-21T06:00:35.127Z,10.6
2023-03-21T06:05:35.355Z,10.6
2023-03-21T06:10:35.128Z,10.7
2023-03-21T06:15:35.515Z,10.7
2023-03-21T06:20:35.156Z,10.7
2023-03-21T06:25:35.168Z,10.8
2023-03-21T06:30:35.165Z,10.8
2023-03-21T06:35:35.321Z,10.8
2023-03-21T06:40:35.158Z,10.9
2023-03-21T06:45:35.440Z,10.9
2023-03-21T06:50:35.158Z,11.0
2023-03-21T06:55:35.361Z,11.1
2023-03-21T07:00:35.230Z,11.1
2023-03-21T07:05:35.196Z,11.2
2023-03-21T07:10:35.168Z,11.2
2023-03-21T07:15:35.320Z,11.3
2023-03-21T07:20:35.186Z,11.4
2023-03-21T07:25:35.210Z,11.5
2023-03-21T07:30:35.196Z,11.6
2023-03-21T07:40:35.209Z,11.5
2023-03-21T07:45:35.310Z,11.5
2023-03-21T07:50:35.199Z,11.5
2023-03-21T07:55:35.290Z,11.6
2023-03-21T08:00:35.196Z,11.6
2023-03-21T08:05:35.215Z,11.6
2023-03-21T08:10:35.245Z,11.5
2023-03-21T08:15:35.278Z,11.5
2023-03-21T08:20:35.318Z,11.5
2023-03-21T08:25:35.284Z,11.6
2023-03-21T08:30:35.244Z,11.6
2023-03-21T08:35:35.279Z,11.6
2023-03-21T08:40:35.226Z,11.7
2023-03-21T08:45:35.235Z,11.8
2023-03-21T08:50:35.232Z,11.8
2023-03-21T08:55:35.613Z,12.0
2023-03-21T09:00:35.246Z,12.0
2023-03-21T09:05:35.616Z,12.0
2023-03-21T09:10:35.247Z,12.0
2023-03-21T09:15:35.501Z,12.0
2023-03-21T09:20:35.240Z,12.0
2023-03-21T09:25:35.356Z,12.1
2023-03-21T09:30:35.246Z,12.2
2023-03-21T09:35:35.319Z,12.2
2023-03-21T09:40:35.259Z,12.2
2023-03-21T09:45:35.500Z,12.2
2023-03-21T09:50:35.267Z,12.4
2023-03-21T09:55:35.306Z,12.5
2023-03-21T10:00:35.320Z,12.7
2023-03-21T10:05:35.541Z,12.9
2023-03-21T10:10:35.424Z,12.9
2023-03-21T10:15:35.284Z,12.8
2023-03-21T10:20:35.278Z,12.9
2023-03-21T10:25:35.284Z,13.0
2023-03-21T10:30:35.284Z,13.0
2023-03-21T10:35:35.405Z,13.1
2023-03-21T10:40:35.675Z,13.1
2023-03-21T10:45:35.396Z,13.2
2023-03-21T10:50:35.355Z,13.3
2023-03-21T10:55:35.303Z,13.3
2023-03-21T11:00:35.699Z,13.3
2023-03-21T11:05:35.322Z,13.4
2023-03-21T11:10:35.402Z,13.5
2023-03-21T11:15:35.393Z,13.6
2023-03-21T11:20:35.326Z,13.8
2023-03-21T11:25:35.326Z,13.9
2023-03-21T11:30:35.358Z,14.0
2023-03-21T11:35:35.525Z,14.1
2023-03-21T11:40:35.336Z,14.1
2023-03-21T11:45:35.489Z,14.2
2023-03-21T11:50:35.384Z,14.3
2023-03-21T11:55:35.404Z,14.4
2023-03-21T12:00:35.361Z,14.4
2023-03-21T12:05:35.349Z,14.5
2023-03-21T12:10:35.374Z,14.7
2023-03-21T12:15:35.398Z,14.8
2023-03-21T12:20:35.380Z,14.8
2023-03-21T12:25:35.798Z,15.0
2023-03-21T12:30:35.374Z,15.1
2023-03-21T12:35:35.446Z,15.2
2023-03-21T12:40:35.385Z,15.3
2023-03-21T12:45:47.369Z,15.4
2023-03-21T12:50:35.384Z,15.5
2023-03-21T12:55:35.394Z,15.6
2023-03-21T13:00:35.561Z,15.8
2023-03-21T13:05:35.394Z,15.8
2023-03-21T13:10:35.406Z,15.8
2023-03-21T13:15:35.398Z,15.9
2023-03-21T13:20:35.399Z,15.9
2023-03-21T13:25:35.405Z,15.9
2023-03-21T13:30:35.462Z,15.9
2023-03-21T13:35:35.562Z,15.9
2023-03-21T13:40:35.464Z,15.9
2023-03-21T13:45:35.541Z,16.1
2023-03-21T13:50:35.435Z,16.4
2023-03-21T13:55:35.654Z,16.7
2023-03-21T14:00:35.444Z,17.0
2023-03-21T14:05:35.623Z,16.9
2023-03-21T14:10:35.462Z,16.7
2023-03-21T14:15:40.585Z,16.7
2023-03-21T14:20:35.448Z,16.8
2023-03-21T14:25:41.028Z,17.1
2023-03-21T14:30:35.501Z,17.2
2023-03-21T14:35:35.597Z,17.1
2023-03-21T14:40:35.461Z,17.0
2023-03-21T14:45:35.568Z,16.8
2023-03-21T14:50:35.471Z,16.8
2023-03-21T14:55:35.646Z,16.7
2023-03-21T15:00:35.493Z,16.6
2023-03-21T15:05:35.473Z,16.5
2023-03-21T15:10:35.481Z,16.4
2023-03-21T15:15:35.559Z,16.4
2023-03-21T15:20:35.487Z,16.3
2023-03-21T15:25:35.497Z,16.1
2023-03-21T15:30:35.506Z,16.0
2023-03-21T15:35:35.544Z,15.8
2023-03-21T15:40:35.505Z,15.7
2023-03-21T15:45:35.523Z,15.7
2023-03-21T15:50:35.666Z,15.6
2023-03-21T15:55:35.494Z,15.5
2023-03-21T16:00:35.650Z,15.5
2023-03-21T16:05:35.525Z,15.5
2023-03-21T16:10:35.504Z,15.5
2023-03-21T16:15:35.513Z,15.5
2023-03-21T16:20:35.582Z,15.5
2023-03-21T16:25:35.516Z,15.5
2023-03-21T16:30:35.539Z,15.5
2023-03-21T16:35:35.556Z,15.6
2023-03-21T16:40:37.129Z,15.5
2023-03-21T16:45:35.569Z,15.4
2023-03-21T16:50:35.629Z,15.3
2023-03-21T16:55:35.529Z,15.3
2023-03-21T17:00:35.568Z,15.1
2023-03-21T17:05:35.549Z,15.0
2023-03-21T17:10:35.554Z,14.7
2023-03-21T17:15:35.540Z,14.3
2023-03-21T17:20:35.550Z,14.1
2023-03-21T17:30:35.681Z,13.8
2023-03-21T17:35:35.617Z,13.7
2023-03-21T17:40:35.550Z,13.6
2023-03-21T17:45:35.547Z,13.4
2023-03-21T17:50:35.574Z,13.3
2023-03-21T17:55:35.555Z,13.2
2023-03-21T18:00:35.559Z,13.1
2023-03-21T18:05:35.560Z,13.1
2023-03-21T18:10:35.555Z,13.1
2023-03-21T18:15:38.003Z,13.0
2023-03-21T18:20:53.793Z,13.0
2023-03-21T18:25:35.573Z,12.9
2023-03-21T18:31:09.550Z,12.8
2023-03-21T18:35:35.603Z,12.8
2023-03-21T18:40:35.640Z,12.8
2023-03-21T18:45:35.580Z,12.8
2023-03-21T18:50:35.619Z,12.8
2023-03-21T18:55:47.899Z,12.8
2023-03-21T19:00:35.787Z,12.8
2023-03-21T19:05:35.662Z,12.8
2023-03-21T19:10:35.598Z,12.8
2023-03-21T19:15:35.592Z,12.8
2023-03-21T19:20:35.691Z,12.8
2023-03-21T19:25:35.607Z,12.8
2023-03-21T19:30:35.845Z,12.8
2023-03-21T19:35:35.649Z,12.8
2023-03-21T19:40:35.654Z,12.8
2023-03-21T19:45:35.656Z,12.8
2023-03-21T19:51:26.264Z,12.8
2023-03-21T19:55:35.619Z,12.7
2023-03-21T20:00:35.626Z,12.6
2023-03-21T20:05:35.642Z,12.6
2023-03-21T20:10:35.721Z,12.5
2023-03-21T20:15:45.948Z,12.4
2023-03-21T20:20:35.622Z,12.4
2023-03-21T20:25:35.662Z,12.4
2023-03-21T20:30:35.628Z,12.4
2023-03-21T20:36:32.868Z,12.4
2023-03-21T20:40:35.693Z,12.3
2023-03-21T20:45:35.644Z,12.3
2023-03-21T20:50:39.141Z,12.3
2023-03-21T20:55:35.648Z,12.4
2023-03-21T21:00:35.650Z,12.4
2023-03-21T21:05:35.797Z,12.4
2023-03-21T21:10:52.393Z,12.3
2023-03-21T21:15:35.670Z,12.3
2023-03-21T21:20:35.893Z,12.2
2023-03-21T21:25:35.688Z,12.1
2023-03-21T21:30:35.660Z,12.1
2023-03-21T21:35:35.726Z,12.0
2023-03-21T21:40:35.744Z,12.0
2023-03-21T21:45:35.677Z,11.9
2023-03-21T21:50:35.673Z,11.9
2023-03-21T21:55:35.691Z,11.9
2023-03-21T22:00:35.795Z,12.0
2023-03-21T22:05:35.683Z,12.0
2023-03-21T22:10:35.693Z,12.0
2023-03-21T22:15:35.686Z,12.0
2023-03-21T22:20:35.799Z,12.0
2023-03-21T22:25:35.696Z,12.0
2023-03-21T22:30:35.710Z,12.0
2023-03-21T22:35:35.734Z,12.0
2023-03-21T22:40:35.771Z,11.9
2023-03-21T22:45:35.875Z,11.9
2023-03-21T22:50:35.769Z,11.8
2023-03-21T22:55:35.721Z,11.8
2023-03-21T23:00:35.720Z,11.8
2023-03-21T23:05:35.722Z,11.7
2023-03-21T23:10:35.724Z,11.6
2023-03-21T23:15:35.803Z,11.5
2023-03-21T23:20:35.737Z,11.5
2023-03-21T23:25:35.724Z,11.4
2023-03-21T23:30:35.736Z,11.3
2023-03-21T23:35:35.739Z,11.2
2023-03-21T23:40:35.735Z,11.1
2023-03-21T23:45:35.734Z,11.0
2023-03-21T23:50:35.751Z,10.9
2023-03-21T23:55:35.742Z,10.9
